Time;durP1;ratioP1;P1;durP2;ratioP2;P2;SDS_P1;SDS_P2;PMS_P1;PMS_P2;Temp;Humidity;BMP_temperature;BMP_pressure;BME280_temperature;BME280_humidity;BME280_pressure;Samples;Min_cycle;Max_cycle;Signal;HPM_P1;HPM_P2
2021/08/22 00:01:09;;;;;;;8.80;6.90;;;21.80;65.20;;;;;;5036097;28;20092;-58
2021/08/22 00:03:34;;;;;;;9.00;6.47;;;21.70;65.40;;;;;;5036418;28;20594;-59
2021/08/22 00:06:00;;;;;;;9.75;6.10;;;21.70;65.50;;;;;;5036453;28;20493;-58
2021/08/22 00:08:26;;;;;;;10.20;6.65;;;21.70;65.60;;;;;;5036166;28;20022;-58
2021/08/22 00:10:51;;;;;;;8.20;6.72;;;21.70;65.80;;;;;;5037022;28;20057;-58
2021/08/22 00:13:17;;;;;;;8.63;7.30;;;21.70;65.90;;;;;;5056958;28;20036;-58
2021/08/22 00:15:43;;;;;;;8.18;7.22;;;21.70;66.10;;;;;;5040229;28;20083;-58
2021/08/22 00:18:09;;;;;;;8.63;6.53;;;21.70;66.20;;;;;;5039949;28;20025;-58
2021/08/22 00:20:34;;;;;;;8.40;6.53;;;21.60;66.20;;;;;;5039728;28;20182;-58
2021/08/22 00:23:00;;;;;;;9.63;6.88;;;21.60;66.50;;;;;;5039390;28;20358;-58
2021/08/22 00:25:26;;;;;;;8.80;7.40;;;21.60;66.30;;;;;;5039984;28;20124;-58
2021/08/22 00:27:52;;;;;;;7.40;6.15;;;21.60;66.70;;;;;;5041268;28;20029;-58
2021/08/22 00:30:18;;;;;;;8.25;5.95;;;21.60;66.70;;;;;;5039317;28;20045;-58
2021/08/22 00:32:43;;;;;;;11.10;6.45;;;21.60;66.90;;;;;;5041234;28;20108;-58
2021/08/22 00:35:10;;;;;;;7.60;6.32;;;21.60;67.10;;;;;;5039660;28;20420;-57
2021/08/22 00:37:35;;;;;;;8.50;6.78;;;21.60;67.20;;;;;;5040308;28;20030;-58
2021/08/22 00:40:01;;;;;;;7.85;6.68;;;21.60;67.30;;;;;;5039577;28;20350;-58
2021/08/22 00:42:32;;;;;;;8.23;6.28;;;21.60;67.60;;;;;;5054043;28;20029;-59
2021/08/22 00:44:59;;;;;;;7.22;6.50;;;21.50;67.70;;;;;;5059342;28;20029;-58
2021/08/22 00:47:25;;;;;;;8.32;6.75;;;21.50;68.00;;;;;;5060161;28;20386;-57
2021/08/22 00:49:51;;;;;;;8.45;6.55;;;21.60;68.10;;;;;;5059499;28;20366;-58
2021/08/22 00:52:17;;;;;;;9.15;7.10;;;21.50;68.20;;;;;;5060180;28;20036;-58
2021/08/22 00:54:43;;;;;;;9.20;6.50;;;21.50;68.20;;;;;;5059457;28;20036;-58
2021/08/22 00:57:10;;;;;;;8.25;6.18;;;21.50;68.10;;;;;;5059572;28;20021;-58
2021/08/22 00:59:38;;;;;;;7.00;5.80;;;21.50;68.10;;;;;;5059494;28;20032;-59
2021/08/22 01:02:05;;;;;;;8.57;6.22;;;21.50;68.20;;;;;;5058794;28;20500;-58
2021/08/22 01:04:41;;;;;;;6.82;6.03;;;21.50;68.20;;;;;;5058962;28;20036;-58
2021/08/22 01:07:23;;;;;;;7.85;6.50;;;21.40;68.00;;;;;;5058689;28;20108;-58
2021/08/22 01:09:50;;;;;;;6.65;5.75;;;21.40;68.00;;;;;;5040143;28;20036;-58
2021/08/22 01:12:40;;;;;;;9.07;5.95;;;21.40;68.20;;;;;;5046022;28;20481;-58
2021/08/22 01:15:08;;;;;;;7.93;5.82;;;21.40;68.10;;;;;;5038895;28;20380;-58
2021/08/22 01:17:40;;;;;;;6.88;5.43;;;21.40;68.30;;;;;;5039041;28;20033;-58
2021/08/22 01:20:11;;;;;;;7.00;5.80;;;21.40;68.30;;;;;;5038774;28;20021;-58
2021/08/22 01:22:39;;;;;;;9.20;6.05;;;21.40;68.20;;;;;;5038787;28;20481;-58
2021/08/22 01:25:09;;;;;;;6.95;5.60;;;21.40;68.30;;;;;;5037681;28;20076;-58
2021/08/22 01:27:38;;;;;;;6.68;5.82;;;21.50;68.50;;;;;;5039020;28;20159;-58
2021/08/22 01:30:07;;;;;;;7.68;6.35;;;21.50;68.30;;;;;;5037675;28;20051;-58
2021/08/22 01:32:47;;;;;;;8.85;6.30;;;21.50;68.40;;;;;;5038056;28;20061;-58
2021/08/22 01:35:17;;;;;;;7.90;6.10;;;21.50;68.20;;;;;;5038853;28;20041;-58
2021/08/22 01:37:44;;;;;;;8.85;6.15;;;21.50;68.60;;;;;;5037967;28;20029;-58
2021/08/22 01:40:11;;;;;;;6.60;5.90;;;21.60;68.50;;;;;;5038802;28;20033;-57
2021/08/22 01:42:40;;;;;;;7.80;6.85;;;21.50;68.70;;;;;;5054130;28;20060;-58
2021/08/22 01:45:12;;;;;;;9.20;6.32;;;21.50;68.50;;;;;;5039155;28;20365;-58
2021/08/22 01:47:40;;;;;;;6.80;5.88;;;21.50;68.70;;;;;;5037860;28;20104;-58
2021/08/22 01:50:07;;;;;;;6.38;5.65;;;21.50;68.80;;;;;;5038383;28;20052;-58
2021/08/22 01:52:33;;;;;;;8.13;6.03;;;21.50;68.90;;;;;;5038854;28;20025;-58
2021/08/22 01:55:02;;;;;;;8.05;6.93;;;21.50;68.90;;;;;;5038428;28;20026;-57
2021/08/22 01:57:28;;;;;;;8.70;6.47;;;21.50;69.20;;;;;;5038784;28;20014;-57
2021/08/22 01:59:54;;;;;;;7.03;6.10;;;21.40;69.30;;;;;;5038016;28;20017;-58
2021/08/22 02:02:19;;;;;;;9.70;6.57;;;21.40;69.50;;;;;;5038817;28;20512;-58
2021/08/22 02:04:58;;;;;;;6.70;5.93;;;21.30;69.40;;;;;;5038443;28;20029;-58
2021/08/22 02:07:28;;;;;;;8.27;5.93;;;21.30;69.60;;;;;;5038377;28;20025;-59
2021/08/22 02:10:05;;;;;;;7.53;6.07;;;21.30;70.00;;;;;;5038310;28;20022;-58
2021/08/22 02:12:32;;;;;;;7.80;6.45;;;21.20;70.00;;;;;;5054604;28;20043;-58
2021/08/22 02:15:13;;;;;;;9.73;6.93;;;21.10;69.90;;;;;;5044714;28;20029;-58
2021/08/22 02:17:58;;;;;;;7.95;6.28;;;21.10;70.00;;;;;;5039108;28;20025;-58
2021/08/22 02:20:25;;;;;;;8.15;6.45;;;21.10;70.00;;;;;;5038318;28;20022;-57
2021/08/22 02:22:53;;;;;;;7.30;6.22;;;21.10;70.30;;;;;;5038059;28;20033;-59
2021/08/22 02:25:20;;;;;;;7.75;6.60;;;21.00;70.30;;;;;;5039178;28;20366;-58
2021/08/22 02:27:46;;;;;;;8.63;7.05;;;21.00;70.70;;;;;;5037865;28;20033;-58
2021/08/22 02:30:13;;;;;;;7.90;6.47;;;21.00;70.80;;;;;;5037400;28;20041;-58
2021/08/22 02:32:39;;;;;;;7.43;6.60;;;21.00;70.90;;;;;;5038230;28;20029;-58
2021/08/22 02:35:05;;;;;;;8.52;6.32;;;21.00;70.90;;;;;;5037851;28;20032;-58
2021/08/22 02:37:31;;;;;;;9.73;7.22;;;21.00;71.40;;;;;;5038781;28;20021;-58
2021/08/22 02:39:57;;;;;;;8.15;6.40;;;21.00;71.30;;;;;;5035379;28;20075;-58
2021/08/22 02:42:23;;;;;;;10.20;6.63;;;21.00;71.40;;;;;;5054280;28;20025;-57
2021/08/22 02:44:48;;;;;;;8.00;6.55;;;21.00;71.60;;;;;;5058188;28;20033;-58
2021/08/22 02:47:15;;;;;;;7.57;6.18;;;21.00;71.60;;;;;;5058489;28;20021;-58
2021/08/22 02:49:42;;;;;;;8.27;6.28;;;21.00;71.70;;;;;;5057842;28;20116;-57
2021/08/22 02:52:08;;;;;;;7.75;5.85;;;21.00;71.70;;;;;;5058658;28;20025;-58
2021/08/22 02:54:34;;;;;;;8.88;6.53;;;21.00;71.70;;;;;;5057984;28;20082;-58
2021/08/22 02:57:00;;;;;;;9.88;6.65;;;21.00;71.70;;;;;;5057432;28;20028;-58
2021/08/22 02:59:25;;;;;;;7.18;6.03;;;21.00;71.90;;;;;;5058242;28;20025;-58
2021/08/22 03:01:51;;;;;;;7.45;6.20;;;21.00;72.10;;;;;;5057702;28;20036;-57
2021/08/22 03:04:17;;;;;;;9.55;6.45;;;21.00;72.20;;;;;;5057606;28;20051;-58
2021/08/22 03:06:42;;;;;;;7.57;6.38;;;21.00;72.40;;;;;;5057686;28;20025;-58
2021/08/22 03:09:08;;;;;;;7.28;6.47;;;21.00;73.30;;;;;;5057186;28;20087;-58
2021/08/22 03:11:34;;;;;;;12.13;7.18;;;21.00;73.00;;;;;;5045960;28;20029;-57
2021/08/22 03:13:59;;;;;;;7.70;6.50;;;21.10;72.90;;;;;;5037522;28;20033;-58
2021/08/22 03:16:26;;;;;;;7.82;6.60;;;21.10;72.80;;;;;;5038009;28;20033;-58
2021/08/22 03:18:51;;;;;;;8.07;6.35;;;21.10;73.30;;;;;;5037397;28;20039;-58
2021/08/22 03:21:17;;;;;;;8.80;6.75;;;21.10;73.00;;;;;;5037532;28;20017;-57
2021/08/22 03:23:43;;;;;;;7.28;6.40;;;21.10;73.90;;;;;;5037598;28;20048;-57
2021/08/22 03:26:09;;;;;;;7.82;6.40;;;21.10;73.30;;;;;;5037209;28;20053;-58
2021/08/22 03:28:36;;;;;;;7.45;6.25;;;21.10;73.50;;;;;;5037283;28;20036;-58
2021/08/22 03:31:02;;;;;;;6.55;5.25;;;21.10;73.60;;;;;;5035492;28;20039;-58
2021/08/22 03:33:27;;;;;;;6.13;5.45;;;21.20;73.60;;;;;;5037540;28;20020;-58
2021/08/22 03:35:53;;;;;;;5.80;5.20;;;21.20;73.50;;;;;;5036969;28;20033;-58
2021/08/22 03:38:19;;;;;;;7.78;5.30;;;21.20;73.50;;;;;;5037370;28;20469;-58
2021/08/22 03:40:45;;;;;;;7.55;4.95;;;21.20;73.50;;;;;;5040590;28;20021;-58
2021/08/22 03:43:10;;;;;;;6.55;5.28;;;21.20;73.40;;;;;;5057339;28;20028;-58
2021/08/22 03:45:36;;;;;;;6.85;5.03;;;21.20;73.10;;;;;;5056263;28;20039;-58
2021/08/22 03:48:02;;;;;;;5.68;4.57;;;21.20;73.30;;;;;;5037033;28;20308;-58
2021/08/22 03:50:27;;;;;;;6.57;5.05;;;21.20;73.40;;;;;;5040324;28;20230;-58
2021/08/22 03:52:53;;;;;;;6.68;5.50;;;21.20;73.50;;;;;;5036793;28;20473;-58
2021/08/22 03:55:19;;;;;;;7.30;4.65;;;21.20;73.30;;;;;;5037712;28;20034;-58
2021/08/22 03:57:45;;;;;;;5.80;4.93;;;21.20;73.20;;;;;;5038421;28;20053;-57
2021/08/22 04:00:12;;;;;;;6.70;5.30;;;21.20;73.40;;;;;;5037609;28;20033;-58
2021/08/22 04:02:38;;;;;;;5.70;4.97;;;21.20;73.30;;;;;;5037638;28;20022;-58
2021/08/22 04:05:07;;;;;;;5.68;5.07;;;21.20;73.40;;;;;;5038408;28;20029;-58
2021/08/22 04:07:33;;;;;;;5.72;5.03;;;21.20;73.40;;;;;;5038223;28;20053;-57
2021/08/22 04:09:59;;;;;;;7.22;5.18;;;21.20;73.50;;;;;;5038448;28;20083;-57
2021/08/22 04:12:25;;;;;;;5.78;4.80;;;21.20;73.40;;;;;;5037910;28;20041;-58
2021/08/22 04:14:51;;;;;;;6.32;5.05;;;21.20;73.50;;;;;;5037525;28;20034;-58
2021/08/22 04:17:17;;;;;;;6.55;5.15;;;21.30;73.50;;;;;;5037820;28;20492;-58
2021/08/22 04:19:42;;;;;;;6.60;5.18;;;21.40;73.60;;;;;;5037792;28;20113;-58
2021/08/22 04:22:08;;;;;;;6.35;5.07;;;21.40;73.70;;;;;;5037022;28;20064;-57
2021/08/22 04:24:35;;;;;;;6.32;4.95;;;21.50;73.50;;;;;;5037092;28;20029;-58
2021/08/22 04:27:02;;;;;;;7.10;5.20;;;21.60;73.10;;;;;;5037159;28;20061;-58
2021/08/22 04:29:29;;;;;;;5.95;5.03;;;21.60;73.10;;;;;;5037134;28;20091;-58
2021/08/22 04:31:55;;;;;;;5.53;4.60;;;21.70;72.90;;;;;;5037408;28;20053;-57
2021/08/22 04:34:21;;;;;;;4.97;4.32;;;21.70;72.60;;;;;;5037832;28;20095;-58
2021/08/22 04:36:47;;;;;;;6.25;5.10;;;21.70;72.70;;;;;;5037403;28;20392;-58
2021/08/22 04:39:13;;;;;;;6.97;4.88;;;21.80;72.60;;;;;;5037363;28;20028;-58
2021/08/22 04:41:43;;;;;;;5.88;5.15;;;21.80;72.50;;;;;;5037283;28;20030;-58
2021/08/22 04:44:09;;;;;;;5.95;4.80;;;21.70;72.40;;;;;;5036814;28;20095;-58
2021/08/22 04:46:35;;;;;;;5.72;4.88;;;21.70;72.30;;;;;;5037380;28;20033;-58
2021/08/22 04:49:00;;;;;;;6.28;4.85;;;21.70;72.30;;;;;;5037700;28;20025;-58
2021/08/22 04:51:26;;;;;;;6.35;5.18;;;21.70;72.30;;;;;;5037463;28;20024;-58
2021/08/22 04:53:52;;;;;;;5.40;4.57;;;21.60;72.40;;;;;;5037919;28;20053;-58
2021/08/22 04:56:17;;;;;;;5.18;4.60;;;21.60;72.70;;;;;;5037911;28;20548;-58
2021/08/22 04:58:43;;;;;;;6.25;4.57;;;21.70;72.50;;;;;;5037771;28;20029;-58
2021/08/22 05:01:09;;;;;;;6.05;4.75;;;21.70;72.50;;;;;;5040159;28;20100;-57
2021/08/22 05:03:34;;;;;;;5.75;4.78;;;21.70;72.40;;;;;;5040890;28;20504;-58
2021/08/22 05:06:00;;;;;;;6.43;4.63;;;21.60;72.20;;;;;;5041578;28;20087;-58
2021/08/22 05:08:26;;;;;;;5.82;4.90;;;21.60;72.30;;;;;;5041100;28;20538;-58
2021/08/22 05:10:54;;;;;;;6.00;4.90;;;21.70;72.50;;;;;;5046400;28;20036;-58
2021/08/22 05:13:20;;;;;;;5.25;4.72;;;21.70;72.30;;;;;;5061236;28;20574;-58
2021/08/22 05:15:46;;;;;;;5.35;4.72;;;21.80;72.30;;;;;;5060171;28;20033;-58
2021/08/22 05:18:11;;;;;;;5.80;4.70;;;21.90;72.20;;;;;;5059950;28;20099;-58
2021/08/22 05:20:37;;;;;;;6.38;4.55;;;22.00;72.20;;;;;;5059931;28;20025;-58
2021/08/22 05:23:03;;;;;;;5.20;4.70;;;22.10;72.10;;;;;;5060681;28;20075;-58
2021/08/22 05:25:28;;;;;;;5.43;4.50;;;22.10;71.70;;;;;;5060295;28;20028;-58
2021/08/22 05:27:54;;;;;;;5.43;4.30;;;22.20;71.60;;;;;;5061073;28;20240;-57
2021/08/22 05:30:20;;;;;;;5.13;4.25;;;22.20;71.70;;;;;;5058894;28;20041;-58
2021/08/22 05:32:45;;;;;;;4.72;4.22;;;22.40;71.80;;;;;;5044840;28;20029;-59
2021/08/22 05:35:11;;;;;;;7.13;4.80;;;22.70;71.00;;;;;;5038599;28;20072;-57
2021/08/22 05:37:36;;;;;;;5.10;4.10;;;23.10;70.10;;;;;;5038013;28;20079;-58
2021/08/22 05:40:03;;;;;;;4.40;4.00;;;23.40;69.10;;;;;;5037740;28;20028;-58
2021/08/22 05:42:28;;;;;;;5.22;4.15;;;23.70;68.30;;;;;;5056389;28;20465;-58
2021/08/22 05:44:54;;;;;;;5.47;4.10;;;23.90;67.80;;;;;;5057228;28;20032;-58
2021/08/22 05:47:20;;;;;;;5.05;4.32;;;24.00;67.40;;;;;;5036330;28;20059;-58
2021/08/22 05:49:47;;;;;;;5.45;4.10;;;24.00;67.30;;;;;;5052013;28;20033;-59
2021/08/22 05:52:13;;;;;;;6.22;4.60;;;24.10;67.30;;;;;;5036291;28;20029;-58
2021/08/22 05:54:39;;;;;;;4.70;4.00;;;24.10;67.20;;;;;;5022114;28;20026;-58
2021/08/22 05:57:06;;;;;;;5.97;4.40;;;24.10;67.30;;;;;;5032722;28;20075;-58
2021/08/22 05:59:33;;;;;;;5.63;4.10;;;24.10;67.20;;;;;;5035425;28;20532;-58
2021/08/22 06:02:00;;;;;;;5.35;4.13;;;24.10;67.10;;;;;;5035280;28;20035;-57
2021/08/22 06:04:25;;;;;;;4.13;3.72;;;24.10;67.10;;;;;;5035285;28;20060;-58
2021/08/22 06:06:51;;;;;;;4.30;3.70;;;24.10;67.00;;;;;;5019970;28;20485;-58
2021/08/22 06:09:17;;;;;;;4.72;3.78;;;24.10;66.90;;;;;;5034073;28;20068;-58
2021/08/22 06:11:44;;;;;;;3.92;3.47;;;24.20;66.60;;;;;;5034430;28;20032;-58
2021/08/22 06:14:09;;;;;;;4.65;3.67;;;24.10;66.40;;;;;;5034962;28;20033;-58
2021/08/22 06:16:35;;;;;;;4.68;3.35;;;24.10;66.40;;;;;;5035538;28;20026;-58
2021/08/22 06:19:00;;;;;;;4.82;3.40;;;24.10;66.20;;;;;;5035090;28;20032;-59
2021/08/22 06:21:26;;;;;;;4.55;4.10;;;24.10;66.50;;;;;;5035505;28;20376;-59
2021/08/22 06:23:57;;;;;;;4.65;3.67;;;24.10;66.50;;;;;;5035557;28;20052;-58
2021/08/22 06:26:24;;;;;;;5.57;3.67;;;24.10;66.70;;;;;;5035325;28;20033;-57
2021/08/22 06:28:51;;;;;;;5.05;3.70;;;24.10;66.90;;;;;;5035246;28;20477;-58
2021/08/22 06:31:16;;;;;;;4.65;4.18;;;24.10;66.60;;;;;;5035326;28;20101;-58
2021/08/22 06:33:42;;;;;;;4.15;3.70;;;24.20;66.60;;;;;;5035664;28;20053;-59
2021/08/22 06:36:08;;;;;;;3.88;3.42;;;24.20;66.40;;;;;;5035614;28;20034;-58
2021/08/22 06:38:34;;;;;;;4.35;3.38;;;24.30;66.20;;;;;;5035492;28;20026;-58
2021/08/22 06:41:00;;;;;;;3.95;3.55;;;24.30;66.00;;;;;;5045005;28;20119;-58
2021/08/22 06:43:25;;;;;;;5.32;3.72;;;24.30;65.90;;;;;;5035208;28;20056;-58
2021/08/22 06:45:51;;;;;;;4.47;3.60;;;24.30;65.70;;;;;;5034931;28;20037;-57
2021/08/22 06:48:17;;;;;;;4.95;3.30;;;24.30;65.60;;;;;;5035687;28;20060;-58
2021/08/22 06:50:43;;;;;;;5.00;3.67;;;24.40;65.40;;;;;;5035489;28;20026;-58
2021/08/22 06:53:09;;;;;;;3.40;3.10;;;24.40;65.10;;;;;;5035278;28;20029;-58
2021/08/22 06:55:35;;;;;;;3.17;2.80;;;24.40;65.30;;;;;;5035265;28;20095;-59
2021/08/22 06:58:01;;;;;;;4.05;3.10;;;24.50;65.00;;;;;;5034923;28;20029;-58
2021/08/22 07:00:26;;;;;;;3.25;2.95;;;24.50;64.50;;;;;;5034604;28;20049;-58
2021/08/22 07:02:52;;;;;;;3.72;3.08;;;24.50;64.40;;;;;;5037784;28;20034;-58
2021/08/22 07:05:18;;;;;;;4.20;3.00;;;24.60;64.80;;;;;;5035060;28;20052;-58
2021/08/22 07:07:44;;;;;;;4.20;3.40;;;24.60;64.70;;;;;;5034460;28;20057;-58
2021/08/22 07:10:10;;;;;;;3.75;3.30;;;24.70;64.80;;;;;;5034811;28;20114;-58
2021/08/22 07:12:36;;;;;;;4.10;3.30;;;24.70;64.40;;;;;;5035080;28;20031;-57
2021/08/22 07:15:03;;;;;;;3.83;3.20;;;24.80;64.40;;;;;;5034611;28;20075;-58
2021/08/22 07:17:29;;;;;;;3.30;3.00;;;24.70;64.30;;;;;;5034975;28;20021;-59
2021/08/22 07:19:54;;;;;;;3.80;3.17;;;24.80;64.60;;;;;;5034280;28;20114;-58
2021/08/22 07:22:20;;;;;;;3.05;2.67;;;24.80;64.80;;;;;;5034090;28;20385;-58
2021/08/22 07:24:46;;;;;;;3.22;2.92;;;24.80;64.00;;;;;;5033996;28;20033;-58
2021/08/22 07:27:11;;;;;;;3.83;2.92;;;24.80;63.50;;;;;;5034848;28;20079;-58
2021/08/22 07:29:37;;;;;;;3.47;2.92;;;24.80;63.60;;;;;;5034531;28;20025;-59
2021/08/22 07:32:04;;;;;;;3.33;3.00;;;24.80;63.50;;;;;;5036344;28;21392;-57
2021/08/22 07:34:30;;;;;;;4.63;3.17;;;24.70;63.30;;;;;;5054347;28;20511;-58
2021/08/22 07:36:56;;;;;;;3.85;3.38;;;24.60;63.40;;;;;;5054766;28;20029;-58
2021/08/22 07:39:21;;;;;;;4.28;2.88;;;24.60;63.50;;;;;;5054751;28;20024;-58
2021/08/22 07:41:47;;;;;;;3.45;2.95;;;24.50;63.40;;;;;;5052566;28;20025;-57
2021/08/22 07:44:13;;;;;;;3.30;2.70;;;24.50;63.20;;;;;;5034563;28;20366;-58
2021/08/22 07:46:38;;;;;;;4.53;2.83;;;24.50;63.20;;;;;;5032660;28;20453;-58
2021/08/22 07:49:04;;;;;;;3.22;2.85;;;24.50;63.20;;;;;;5033075;28;20599;-58
2021/08/22 07:51:30;;;;;;;2.95;2.70;;;24.50;63.10;;;;;;5033507;28;20103;-58
2021/08/22 07:53:56;;;;;;;3.80;2.90;;;24.40;62.90;;;;;;5033369;28;20032;-59
2021/08/22 07:56:21;;;;;;;3.20;2.80;;;24.40;63.00;;;;;;5034031;28;20545;-57
2021/08/22 07:58:47;;;;;;;2.78;2.40;;;24.50;62.60;;;;;;5034241;28;20432;-58
2021/08/22 08:01:12;;;;;;;3.45;2.75;;;24.50;62.80;;;;;;5034421;28;20416;-58
2021/08/22 08:03:38;;;;;;;4.05;2.67;;;24.50;62.60;;;;;;5034218;28;20045;-58
2021/08/22 08:06:04;;;;;;;3.30;2.80;;;24.50;61.80;;;;;;5036411;28;20473;-58
2021/08/22 08:08:29;;;;;;;2.97;2.20;;;24.50;61.80;;;;;;5036937;28;20301;-57
2021/08/22 08:10:55;;;;;;;3.15;2.45;;;24.50;61.60;;;;;;5037307;28;20025;-58
2021/08/22 08:13:21;;;;;;;2.50;2.13;;;24.50;61.10;;;;;;5037496;28;20025;-58
2021/08/22 08:15:46;;;;;;;2.33;2.05;;;24.40;60.80;;;;;;5036396;28;20080;-58
2021/08/22 08:18:12;;;;;;;2.78;2.58;;;24.40;60.60;;;;;;5046935;28;20021;-58
2021/08/22 08:20:38;;;;;;;2.78;2.40;;;24.40;60.30;;;;;;5056663;28;20036;-58
2021/08/22 08:23:04;;;;;;;3.47;2.33;;;24.30;60.10;;;;;;5040628;28;20029;-58
2021/08/22 08:25:29;;;;;;;2.70;2.45;;;24.30;60.30;;;;;;5037101;28;20033;-58
2021/08/22 08:27:55;;;;;;;2.88;2.60;;;24.30;60.10;;;;;;5036760;28;20416;-58
2021/08/22 08:30:21;;;;;;;4.40;2.58;;;24.30;60.20;;;;;;5037238;28;20397;-57
2021/08/22 08:32:47;;;;;;;2.88;1.92;;;24.30;60.10;;;;;;5036347;28;20027;-58
2021/08/22 08:35:12;;;;;;;2.33;2.13;;;24.30;59.70;;;;;;5056132;28;20029;-58
2021/08/22 08:37:42;;;;;;;1.77;1.67;;;24.20;59.20;;;;;;5061035;28;20040;-58
2021/08/22 08:40:18;;;;;;;2.25;1.90;;;24.20;59.00;;;;;;5060600;28;20051;-58
2021/08/22 08:42:50;;;;;;;3.25;2.08;;;24.20;58.70;;;;;;5050791;28;20029;-56
2021/08/22 08:45:21;;;;;;;2.80;2.10;;;24.20;58.50;;;;;;5040125;28;20096;-58
2021/08/22 08:47:49;;;;;;;2.13;1.90;;;24.10;58.60;;;;;;5040716;28;20545;-58
2021/08/22 08:50:24;;;;;;;2.33;2.00;;;24.10;58.40;;;;;;5040737;28;20018;-58
2021/08/22 08:52:58;;;;;;;2.25;1.70;;;24.10;57.70;;;;;;5040834;28;20100;-58
2021/08/22 08:55:28;;;;;;;1.70;1.60;;;24.00;57.50;;;;;;5040576;28;20026;-58
2021/08/22 08:57:55;;;;;;;1.90;1.80;;;24.00;57.70;;;;;;5041208;28;20166;-58
2021/08/22 09:00:33;;;;;;;2.15;1.95;;;24.00;57.40;;;;;;5042895;28;20019;-58
2021/08/22 09:03:00;;;;;;;2.15;1.95;;;24.00;57.70;;;;;;5061216;28;20473;-58
2021/08/22 09:05:27;;;;;;;2.50;2.00;;;23.90;57.60;;;;;;5060777;28;20025;-57
2021/08/22 09:08:14;;;;;;;4.00;2.10;;;23.90;57.70;;;;;;5060007;28;20481;-58
2021/08/22 09:11:17;;;;;;;1.90;1.80;;;23.90;57.10;;;;;;5060596;28;20025;-58
2021/08/22 09:14:10;;;;;;;3.33;1.88;;;23.90;57.10;;;;;;5059433;28;20033;-58
2021/08/22 09:16:54;;;;;;;1.77;1.60;;;23.90;57.20;;;;;;5060317;28;20021;-57
2021/08/22 09:19:57;;;;;;;1.85;1.73;;;23.90;57.20;;;;;;5060336;28;20365;-58
2021/08/22 09:22:59;;;;;;;1.70;1.55;;;23.90;56.80;;;;;;5059786;28;20358;-58
2021/08/22 09:25:37;;;;;;;1.65;1.40;;;23.80;56.70;;;;;;5048760;28;20026;-58
2021/08/22 09:28:25;;;;;;;1.83;1.65;;;23.80;56.70;;;;;;5039464;28;20026;-58
2021/08/22 09:31:28;;;;;;;3.83;2.10;;;23.80;56.90;;;;;;5044990;28;20447;-57
2021/08/22 09:34:31;;;;;;;2.75;1.88;;;23.80;56.90;;;;;;5059169;28;20032;-58
2021/08/22 09:37:12;;;;;;;2.35;1.90;;;23.80;56.70;;;;;;5058273;28;20396;-58
2021/08/22 09:40:28;;;;;;;1.65;1.55;;;23.80;56.90;;;;;;5058468;28;20032;-58
2021/08/22 09:43:32;;;;;;;1.95;1.65;;;23.80;57.00;;;;;;5015149;28;20370;-58
2021/08/22 09:46:35;;;;;;;2.10;1.70;;;23.80;56.80;;;;;;5018301;28;20034;-58
2021/08/22 09:49:15;;;;;;;1.33;1.17;;;23.80;56.50;;;;;;5018804;28;20026;-59
2021/08/22 09:52:25;;;;;;;1.75;1.65;;;23.80;56.70;;;;;;5024153;28;20025;-58
2021/08/22 09:55:28;;;;;;;1.33;1.23;;;23.80;56.50;;;;;;5015595;28;20436;-56
2021/08/22 09:58:32;;;;;;;1.40;1.30;;;23.80;56.10;;;;;;5038858;28;20026;-58
2021/08/22 10:01:22;;;;;;;1.48;1.38;;;23.80;56.10;;;;;;5047435;28;20025;-57
2021/08/22 10:04:31;;;;;;;1.52;1.42;;;23.80;56.40;;;;;;5057622;28;20017;-57
2021/08/22 10:07:17;;;;;;;2.03;1.30;;;23.80;55.90;;;;;;5015323;28;20026;-59
2021/08/22 10:10:00;;;;;;;1.42;1.30;;;23.80;55.80;;;;;;5054707;28;20061;-58
2021/08/22 10:12:25;;;;;;;1.40;1.30;;;23.80;55.50;;;;;;5058095;28;20024;-58
2021/08/22 10:14:51;;;;;;;3.17;1.50;;;23.80;55.30;;;;;;5057993;28;20024;-58
2021/08/22 10:17:26;;;;;;;1.77;1.30;;;23.80;55.30;;;;;;5057103;28;20463;-58
2021/08/22 10:19:52;;;;;;;1.65;0.93;;;23.80;55.00;;;;;;5057249;28;20075;-58
2021/08/22 10:22:25;;;;;;;2.67;1.35;;;23.80;54.70;;;;;;5057116;28;20107;-59
2021/08/22 10:24:59;;;;;;;1.30;1.20;;;23.80;54.70;;;;;;5056833;28;20112;-59
2021/08/22 10:27:46;;;;;;;1.48;1.38;;;23.80;54.50;;;;;;5057161;28;20029;-58
2021/08/22 10:30:16;;;;;;;2.40;0.90;;;23.80;54.70;;;;;;5053519;28;20488;-59
2021/08/22 10:32:57;;;;;;;1.63;1.48;;;23.80;54.60;;;;;;5037593;28;20026;-59
2021/08/22 10:35:30;;;;;;;1.42;1.33;;;23.80;54.60;;;;;;5037033;28;20026;-58
2021/08/22 10:37:56;;;;;;;1.23;1.13;;;23.90;54.60;;;;;;5036547;28;20026;-58
2021/08/22 10:40:24;;;;;;;2.10;1.48;;;23.90;54.40;;;;;;5036862;28;20032;-59
2021/08/22 10:43:10;;;;;;;5.10;1.40;;;23.80;54.60;;;;;;5036728;28;20502;-59
2021/08/22 10:45:48;;;;;;;1.52;1.42;;;23.90;54.40;;;;;;5036647;28;20029;-58
2021/08/22 10:48:23;;;;;;;1.45;1.35;;;23.90;54.30;;;;;;5035021;28;20088;-59
2021/08/22 10:50:58;;;;;;;2.03;1.80;;;23.90;54.20;;;;;;5036906;28;20087;-59
2021/08/22 10:53:29;;;;;;;2.05;1.75;;;23.90;54.80;;;;;;5036159;28;20032;-59
2021/08/22 10:55:55;;;;;;;1.50;1.40;;;23.90;54.10;;;;;;5036303;28;20229;-58
2021/08/22 10:58:41;;;;;;;1.67;1.48;;;24.00;54.10;;;;;;5036662;28;20362;-56
2021/08/22 11:01:19;;;;;;;1.20;1.17;;;24.00;54.30;;;;;;5036354;28;20037;-58
2021/08/22 11:04:10;;;;;;;1.50;1.40;;;24.00;54.10;;;;;;5036069;28;20108;-57
2021/08/22 11:06:54;;;;;;;1.17;1.13;;;24.00;54.00;;;;;;5036592;28;20025;-58
2021/08/22 11:09:33;;;;;;;3.05;2.63;;;24.00;53.90;;;;;;5036114;28;20017;-59
2021/08/22 11:11:58;;;;;;;2.92;2.10;;;24.00;54.10;;;;;;5036268;28;20052;-58
2021/08/22 11:14:24;;;;;;;1.60;1.50;;;24.00;54.00;;;;;;5035784;28;20432;-59
2021/08/22 11:16:50;;;;;;;1.63;1.52;;;24.00;54.20;;;;;;5035905;28;20025;-59
2021/08/22 11:19:15;;;;;;;1.60;1.50;;;24.00;54.00;;;;;;5035832;28;20021;-59
2021/08/22 11:21:41;;;;;;;1.73;1.55;;;24.10;54.00;;;;;;5036140;28;20073;-59
2021/08/22 11:24:07;;;;;;;2.63;1.35;;;24.10;54.10;;;;;;5035753;28;20029;-58
2021/08/22 11:26:34;;;;;;;1.65;1.50;;;24.10;53.80;;;;;;5035710;28;20029;-58
2021/08/22 11:29:01;;;;;;;1.80;1.65;;;24.10;53.70;;;;;;5036307;28;20039;-59
2021/08/22 11:31:31;;;;;;;1.83;1.35;;;24.10;53.50;;;;;;5051056;28;20053;-57
2021/08/22 11:34:09;;;;;;;1.55;1.35;;;24.20;53.40;;;;;;5055125;28;20029;-59
2021/08/22 11:36:34;;;;;;;1.77;1.45;;;24.10;53.20;;;;;;5055813;28;20040;-58
2021/08/22 11:39:08;;;;;;;2.28;2.08;;;24.10;53.20;;;;;;5056018;28;20025;-59
2021/08/22 11:41:34;;;;;;;1.60;1.50;;;24.20;53.30;;;;;;5055872;28;20056;-59
2021/08/22 11:44:00;;;;;;;1.38;1.10;;;24.20;53.30;;;;;;5016216;28;20034;-58
2021/08/22 11:46:26;;;;;;;1.65;1.40;;;24.20;53.20;;;;;;5015723;28;20069;-59
2021/08/22 11:48:52;;;;;;;1.27;1.15;;;24.20;53.20;;;;;;5015547;28;20026;-58
2021/08/22 11:51:18;;;;;;;2.10;1.50;;;24.20;53.00;;;;;;5016309;28;20040;-59
2021/08/22 11:53:44;;;;;;;1.45;1.35;;;24.20;53.00;;;;;;5016483;28;20049;-59
2021/08/22 11:56:10;;;;;;;1.13;1.13;;;24.20;53.00;;;;;;5022716;28;20034;-59
2021/08/22 11:58:35;;;;;;;2.40;1.88;;;24.20;52.90;;;;;;5035284;28;20052;-59
2021/08/22 12:01:18;;;;;;;2.85;1.55;;;24.20;52.80;;;;;;5049766;28;20025;-58
2021/08/22 12:03:57;;;;;;;1.42;1.33;;;24.20;52.90;;;;;;5015907;28;20029;-58
2021/08/22 12:06:23;;;;;;;1.45;1.35;;;24.20;52.50;;;;;;5015629;28;20060;-59
2021/08/22 12:08:49;;;;;;;2.53;1.63;;;24.20;52.60;;;;;;5015942;28;20109;-59
2021/08/22 12:11:23;;;;;;;2.13;1.60;;;24.20;52.50;;;;;;5019781;28;20111;-58
2021/08/22 12:13:50;;;;;;;2.17;1.40;;;24.20;52.40;;;;;;5019640;28;20040;-58
2021/08/22 12:16:24;;;;;;;1.77;1.67;;;24.30;52.20;;;;;;5019436;28;20513;-59
2021/08/22 12:18:49;;;;;;;2.50;1.40;;;24.30;52.10;;;;;;5019606;28;20028;-59
2021/08/22 12:21:18;;;;;;;2.10;1.90;;;24.30;52.30;;;;;;5019602;28;20030;-59
2021/08/22 12:23:48;;;;;;;2.38;1.73;;;24.30;52.00;;;;;;5019364;28;20030;-58
2021/08/22 12:26:27;;;;;;;2.45;1.58;;;24.30;51.90;;;;;;5019392;28;20030;-59
2021/08/22 12:28:57;;;;;;;1.60;1.50;;;24.30;52.00;;;;;;5019154;28;20033;-59
2021/08/22 12:31:33;;;;;;;1.40;1.17;;;24.30;51.90;;;;;;5052977;28;20055;-59
2021/08/22 12:34:12;;;;;;;1.63;1.50;;;24.40;51.90;;;;;;5059055;28;20035;-59
2021/08/22 12:36:42;;;;;;;1.48;1.40;;;24.30;51.40;;;;;;5058726;28;20029;-58
2021/08/22 12:39:10;;;;;;;1.75;1.60;;;24.30;51.50;;;;;;5058271;28;20029;-59
2021/08/22 12:41:48;;;;;;;1.70;1.40;;;24.30;51.50;;;;;;5058717;28;20025;-58
2021/08/22 12:44:18;;;;;;;2.22;1.63;;;24.40;51.30;;;;;;5039485;28;20413;-59
2021/08/22 12:46:56;;;;;;;1.80;1.65;;;24.40;51.30;;;;;;5038518;28;20017;-58
2021/08/22 12:49:22;;;;;;;1.77;1.67;;;24.40;51.20;;;;;;5037838;28;20025;-57
2021/08/22 12:51:57;;;;;;;1.83;1.73;;;24.40;51.00;;;;;;5038203;28;20018;-55
2021/08/22 12:54:25;;;;;;;2.83;1.70;;;24.40;51.00;;;;;;5038625;28;20365;-59
2021/08/22 12:56:51;;;;;;;1.70;1.60;;;24.40;50.90;;;;;;5037948;28;20083;-58
2021/08/22 12:59:17;;;;;;;1.42;1.33;;;24.40;50.40;;;;;;5038360;28;20031;-57